Time;durP1;ratioP1;P1;durP2;ratioP2;P2;SDS_P1;SDS_P2;PMS_P1;PMS_P2;Temp;Humidity;BMP_temperature;BMP_pressure;BME280_temperature;BME280_humidity;BME280_pressure;Samples;Min_cycle;Max_cycle;Signal;HPM_P1;HPM_P2
2022/04/21 00:01:52;;;;;;;9.45;6.20;;;;;;;11.13;49.31;101345.69;7395479;19;20019;-57
2022/04/21 00:04:21;;;;;;;11.45;6.10;;;;;;;11.08;49.38;101344.09;7390302;19;20014;-55
2022/04/21 00:06:49;;;;;;;8.98;6.20;;;;;;;11.08;49.54;101344.09;7393272;19;20026;-57
2022/04/21 00:09:18;;;;;;;9.05;5.80;;;;;;;11.01;50.17;101337.38;7391884;19;20041;-60
2022/04/21 00:11:50;;;;;;;9.20;6.38;;;;;;;11.05;50.18;101343.38;7392831;19;20014;-57
2022/04/21 00:14:18;;;;;;;8.43;6.05;;;;;;;10.98;50.59;101334.03;7389594;19;20018;-57
2022/04/21 00:16:47;;;;;;;9.93;6.60;;;;;;;10.96;51.06;101333.22;7392370;19;20350;-62
2022/04/21 00:19:16;;;;;;;9.18;6.10;;;;;;;10.89;51.13;101330.00;7391742;19;20037;-54
2022/04/21 00:24:41;;;;;;;9.32;5.90;;;;;;;10.81;51.93;101332.03;7388001;19;20015;-56
2022/04/21 00:27:13;;;;;;;11.98;6.53;;;;;;;10.81;52.28;101329.41;7391428;19;20010;-58
2022/04/21 00:29:43;;;;;;;10.43;6.53;;;;;;;10.93;51.95;101326.31;7390076;19;20367;-57
2022/04/21 00:32:12;;;;;;;10.57;6.68;;;;;;;10.88;52.33;101330.88;7391297;19;20082;-58
2022/04/21 00:34:41;;;;;;;9.90;6.25;;;;;;;10.86;52.31;101324.84;7390953;19;20026;-59
2022/04/21 00:37:10;;;;;;;9.60;6.85;;;;;;;10.85;52.42;101331.84;7391966;19;20021;-59
2022/04/21 00:39:39;;;;;;;9.57;6.78;;;;;;;10.79;53.17;101323.34;7391118;19;20018;-58
2022/04/21 00:42:09;;;;;;;10.88;6.85;;;;;;;10.69;53.62;101318.47;7391696;19;20015;-58
2022/04/21 00:44:40;;;;;;;10.13;6.72;;;;;;;10.60;54.18;101316.16;7389920;19;20026;-56
2022/04/21 00:47:10;;;;;;;8.40;6.43;;;;;;;10.50;54.31;101320.91;7391433;19;20018;-58
2022/04/21 00:49:40;;;;;;;11.10;6.65;;;;;;;10.48;54.68;101314.84;7389142;19;20472;-55
2022/04/21 00:52:10;;;;;;;10.70;6.88;;;;;;;10.53;54.51;101312.06;7390241;19;20019;-58
2022/04/21 00:54:39;;;;;;;9.68;6.55;;;;;;;10.60;54.75;101305.69;7390543;19;20404;-58
2022/04/21 00:57:08;;;;;;;11.18;7.05;;;;;;;10.50;54.86;101299.94;7390757;19;20480;-58
2022/04/21 00:59:37;;;;;;;9.85;7.00;;;;;;;10.55;55.40;101299.78;7389985;19;20360;-55
2022/04/21 01:04:51;;;;;;;10.90;7.30;;;;;;;10.39;56.48;101302.94;7390882;19;20029;-59
2022/04/21 01:07:20;;;;;;;11.90;7.43;;;;;;;10.43;56.52;101311.56;7390164;19;20015;-59
2022/04/21 01:09:49;;;;;;;11.77;7.43;;;;;;;10.43;56.86;101305.44;7389390;19;20104;-57
2022/04/21 01:12:17;;;;;;;10.43;7.45;;;;;;;10.35;57.06;101303.09;7389538;19;20026;-57
2022/04/21 01:14:46;;;;;;;11.40;7.97;;;;;;;10.40;57.25;101303.78;7389982;19;20022;-59
2022/04/21 01:17:18;;;;;;;10.70;7.10;;;;;;;10.34;57.07;101306.63;7390306;19;20014;-55
2022/04/21 01:19:47;;;;;;;15.15;7.65;;;;;;;10.14;58.19;101308.13;7389432;19;20041;-56
2022/04/21 01:22:18;;;;;;;11.13;7.35;;;;;;;10.21;58.17;101303.56;7390032;19;20007;-59
2022/04/21 01:24:47;;;;;;;10.23;7.72;;;;;;;10.29;58.08;101304.16;7390001;19;20348;-58
2022/04/21 01:27:17;;;;;;;10.50;7.90;;;;;;;10.22;58.39;101313.13;7389507;19;20014;-58
2022/04/21 01:29:47;;;;;;;14.35;7.93;;;;;;;10.15;58.62;101302.00;7388575;19;20019;-59
2022/04/21 01:32:15;;;;;;;11.25;7.47;;;;;;;10.00;59.09;101306.00;7389547;19;20049;-53
2022/04/21 01:34:44;;;;;;;10.52;8.10;;;;;;;10.24;58.87;101307.84;7388958;19;20018;-59
2022/04/21 01:42:38;;;;;;;9.23;7.43;;;;;;;10.07;59.60;101296.16;7389170;19;20018;-56
2022/04/21 01:45:09;;;;;;;10.13;7.78;;;;;;;10.11;59.65;101304.78;7389173;19;20014;-56
2022/04/21 01:47:38;;;;;;;10.07;7.50;;;;;;;10.10;59.85;101303.94;7389508;19;20585;-56
2022/04/21 01:50:08;;;;;;;10.45;7.55;;;;;;;10.25;59.70;101302.53;7388333;19;20014;-56
2022/04/21 01:52:38;;;;;;;13.20;8.40;;;;;;;10.11;59.78;101300.41;7389235;19;20061;-57
2022/04/21 01:55:10;;;;;;;14.40;8.27;;;;;;;10.11;60.25;101297.78;7388751;19;20491;-56
2022/04/21 01:57:39;;;;;;;12.70;7.95;;;;;;;10.14;60.38;101300.28;7388408;19;20017;-56
2022/04/21 02:00:09;;;;;;;11.23;7.65;;;;;;;9.92;60.84;101296.72;7388434;19;20014;-57
2022/04/21 02:02:39;;;;;;;11.50;7.90;;;;;;;9.88;61.17;101293.34;7392757;19;20325;-57
2022/04/21 02:05:08;;;;;;;10.52;8.10;;;;;;;9.84;61.25;101305.69;7389003;19;20014;-58
2022/04/21 02:07:38;;;;;;;10.35;8.25;;;;;;;9.80;61.38;101300.56;7388959;19;20034;-58
2022/04/21 02:10:11;;;;;;;11.05;8.40;;;;;;;9.86;61.21;101295.16;7388016;19;20430;-58
2022/04/21 02:12:40;;;;;;;13.82;8.68;;;;;;;9.81;61.54;101290.06;7388216;19;20018;-58
2022/04/21 02:15:10;;;;;;;10.30;8.23;;;;;;;9.84;61.42;101302.19;7387634;19;20474;-57
2022/04/21 02:17:39;;;;;;;13.55;8.77;;;;;;;9.75;61.83;101303.34;7388399;19;20014;-59
2022/04/21 02:20:11;;;;;;;12.20;7.97;;;;;;;9.76;61.43;101299.00;7387545;19;20020;-58
2022/04/21 02:22:40;;;;;;;12.73;7.75;;;;;;;9.63;62.09;101295.94;7387994;19;20024;-58
2022/04/21 02:25:14;;;;;;;10.70;7.78;;;;;;;9.65;61.88;101300.19;7388472;19;20014;-57
2022/04/21 02:27:45;;;;;;;14.30;7.93;;;;;;;9.65;62.11;101299.34;7387638;19;20029;-55
2022/04/21 02:30:16;;;;;;;11.80;8.25;;;;;;;9.62;61.98;101294.22;7390502;19;20017;-57
2022/04/21 02:32:45;;;;;;;10.65;7.93;;;;;;;9.51;62.60;101300.66;7391227;19;20019;-55
2022/04/21 02:35:15;;;;;;;11.98;8.32;;;;;;;9.58;62.26;101292.59;7391629;19;20096;-58
2022/04/21 02:37:45;;;;;;;12.95;7.88;;;;;;;9.63;62.01;101290.69;7394736;19;20014;-56
2022/04/21 02:40:17;;;;;;;12.27;7.70;;;;;;;9.52;62.42;101294.50;7396390;19;20030;-55
2022/04/21 02:42:46;;;;;;;9.82;7.38;;;;;;;9.46;62.38;101283.38;7398456;19;20033;-53
2022/04/21 02:45:16;;;;;;;12.70;8.18;;;;;;;9.52;62.05;101291.03;7393830;19;20016;-57
2022/04/21 02:47:46;;;;;;;11.60;8.35;;;;;;;9.37;62.41;101281.03;7389391;19;20018;-58
2022/04/21 02:50:18;;;;;;;15.43;8.68;;;;;;;9.46;62.29;101276.38;7387587;19;20378;-55
2022/04/21 02:52:47;;;;;;;11.85;7.80;;;;;;;9.52;61.99;101278.78;7387709;19;20472;-56
2022/04/21 02:58:01;;;;;;;12.60;7.78;;;;;;;9.41;62.06;101280.91;7388591;19;20016;-60
2022/04/21 03:00:30;;;;;;;10.40;7.75;;;;;;;9.44;62.31;101279.94;7387063;19;20026;-57
2022/04/21 03:03:01;;;;;;;10.27;7.10;;;;;;;9.52;62.09;101272.72;7384464;19;20456;-56
2022/04/21 03:05:30;;;;;;;12.57;7.40;;;;;;;9.42;61.75;101274.75;7388322;19;20014;-55
2022/04/21 03:07:59;;;;;;;12.50;8.10;;;;;;;9.34;62.55;101285.47;7387767;19;20022;-58
2022/04/21 03:10:31;;;;;;;10.02;7.53;;;;;;;9.51;61.46;101278.84;7389703;19;20138;-55
2022/04/21 03:13:00;;;;;;;12.23;7.33;;;;;;;9.47;61.82;101279.84;7393711;19;20353;-56
2022/04/21 03:15:30;;;;;;;10.75;7.20;;;;;;;9.41;61.59;101280.91;7393798;19;20013;-58
2022/04/21 03:17:59;;;;;;;11.68;7.45;;;;;;;9.41;61.48;101278.28;7394432;19;20118;-58
2022/04/21 03:25:53;;;;;;;9.65;6.97;;;;;;;9.51;61.07;101269.25;7394023;19;20014;-56
2022/04/21 03:28:22;;;;;;;9.40;6.90;;;;;;;9.58;60.12;101279.50;7393773;19;20018;-58
2022/04/21 03:30:51;;;;;;;9.25;6.80;;;;;;;9.53;60.19;101270.03;7393565;19;20018;-58
2022/04/21 03:33:20;;;;;;;10.00;7.00;;;;;;;9.56;60.24;101274.34;7392392;19;20441;-58
2022/04/21 03:35:49;;;;;;;10.65;6.72;;;;;;;9.51;60.32;101281.47;7393164;19;20026;-58
2022/04/21 03:38:18;;;;;;;10.68;6.40;;;;;;;9.63;60.16;101281.06;7394262;19;20121;-55
2022/04/21 03:40:47;;;;;;;10.48;6.63;;;;;;;9.63;59.65;101286.31;7392559;19;20014;-58
2022/04/21 03:43:18;;;;;;;10.65;7.43;;;;;;;9.65;60.10;101278.41;7392508;19;20010;-57
2022/04/21 03:45:47;;;;;;;10.70;6.68;;;;;;;9.49;60.47;101285.91;7394100;19;20019;-58
2022/04/21 03:48:16;;;;;;;12.57;7.30;;;;;;;9.58;60.59;101288.19;7393481;19;20018;-58
2022/04/21 03:50:44;;;;;;;9.85;6.82;;;;;;;9.54;60.73;101281.34;7392852;19;20021;-55
2022/04/21 03:53:13;;;;;;;11.98;7.18;;;;;;;9.39;61.22;101285.34;7392180;19;20014;-56
2022/04/21 03:55:42;;;;;;;11.02;7.90;;;;;;;9.32;62.06;101292.50;7392304;19;20014;-56
2022/04/21 03:58:11;;;;;;;13.50;7.00;;;;;;;9.42;61.78;101293.06;7393286;19;20018;-58
2022/04/21 04:00:43;;;;;;;10.52;7.32;;;;;;;9.48;61.39;101289.41;7393286;19;20015;-58
2022/04/21 04:03:11;;;;;;;15.00;7.20;;;;;;;9.42;61.76;101298.31;7390869;19;20025;-57
2022/04/21 04:05:40;;;;;;;11.07;7.70;;;;;;;9.33;62.37;101296.84;7393528;19;20014;-58
2022/04/21 04:10:54;;;;;;;10.82;8.10;;;;;;;9.03;63.26;101295.16;7392689;19;20014;-55
2022/04/21 04:13:24;;;;;;;10.20;7.65;;;;;;;8.98;63.62;101304.03;7390863;19;20006;-57
2022/04/21 04:15:57;;;;;;;12.32;8.07;;;;;;;8.99;63.52;101294.41;7392204;19;20034;-58
2022/04/21 04:18:26;;;;;;;10.35;7.70;;;;;;;8.94;64.20;101307.63;7394202;19;20018;-57
2022/04/21 04:20:54;;;;;;;11.63;8.02;;;;;;;9.00;63.99;101307.44;7390441;19;20015;-58
2022/04/21 04:23:24;;;;;;;9.63;7.53;;;;;;;9.02;64.10;101307.38;7392221;19;20025;-54
2022/04/21 04:25:53;;;;;;;11.10;8.10;;;;;;;8.77;64.78;101302.03;7392735;19;20026;-58
2022/04/21 04:28:22;;;;;;;9.90;7.40;;;;;;;8.75;64.75;101307.28;7392748;19;20491;-55
2022/04/21 04:30:50;;;;;;;10.65;7.82;;;;;;;8.60;65.20;101303.38;7392136;19;20022;-59
2022/04/21 04:33:23;;;;;;;9.90;7.75;;;;;;;8.65;65.49;101303.22;7391539;19;20031;-59
2022/04/21 04:35:52;;;;;;;;;;;;;;;8.63;65.56;101298.03;7393266;19;20344;-58
2022/04/21 04:38:21;;;;;;;11.02;7.50;;;;;;;8.56;66.31;101301.72;7393229;19;19918;-59
2022/04/21 04:40:49;;;;;;;13.30;7.90;;;;;;;8.66;66.57;101310.19;7391878;19;20030;-56
2022/04/21 04:43:16;;;;;;;12.45;8.00;;;;;;;8.63;65.88;101308.50;7391582;19;20018;-58
2022/04/21 04:48:29;;;;;;;11.88;8.10;;;;;;;8.51;66.51;101306.25;7392594;19;20019;-57
2022/04/21 04:50:58;;;;;;;9.73;7.75;;;;;;;8.55;66.58;101307.00;7391947;19;20448;-56
2022/04/21 04:53:26;;;;;;;11.55;7.90;;;;;;;8.49;66.29;101308.03;7390721;19;20028;-56
2022/04/21 04:55:55;;;;;;;11.48;7.97;;;;;;;8.53;66.16;101301.81;7391727;19;20018;-57
2022/04/21 04:58:24;;;;;;;12.10;7.80;;;;;;;8.42;67.11;101302.06;7392179;19;20681;-57
2022/04/21 05:00:53;;;;;;;9.07;7.45;;;;;;;8.63;66.29;101308.50;7392519;19;20014;-58
2022/04/21 05:03:22;;;;;;;14.15;7.63;;;;;;;8.55;66.14;101304.41;7390625;19;20026;-58
2022/04/21 05:05:54;;;;;;;9.02;7.25;;;;;;;8.59;66.13;101309.47;7395816;19;20052;-58
2022/04/21 05:08:22;;;;;;;11.45;7.93;;;;;;;8.61;66.05;101305.09;7391937;19;20107;-57
2022/04/21 05:10:53;;;;;;;12.80;7.60;;;;;;;8.75;66.00;101303.81;7392437;19;20369;-57
2022/04/21 05:13:22;;;;;;;9.25;6.88;;;;;;;8.58;66.19;101301.69;7392663;19;20036;-57
2022/04/21 05:15:51;;;;;;;12.45;7.60;;;;;;;8.62;65.99;101301.56;7395832;19;20014;-58
2022/04/21 05:18:21;;;;;;;10.05;7.65;;;;;;;8.74;65.73;101305.59;7417351;19;20018;-58
2022/04/21 05:20:51;;;;;;;12.73;7.50;;;;;;;8.75;65.08;101304.66;7390830;19;20026;-60
2022/04/21 05:23:23;;;;;;;11.02;7.28;;;;;;;8.65;65.88;101303.22;7390045;19;20025;-57
2022/04/21 05:25:52;;;;;;;;;;;;;;;8.74;65.69;101307.31;7391719;19;20007;-58
2022/04/21 05:28:22;;;;;;;9.38;6.85;;;;;;;8.93;65.03;101303.28;7391347;19;19919;-57
2022/04/21 05:30:58;;;;;;;12.77;7.18;;;;;;;8.76;65.05;101302.94;7389685;19;20115;-58
2022/04/21 05:33:28;;;;;;;9.05;6.70;;;;;;;8.67;65.45;101304.06;7388074;19;20088;-53
2022/04/21 05:36:00;;;;;;;11.32;7.32;;;;;;;8.82;64.95;101305.34;7391035;19;20054;-55
2022/04/21 05:38:33;;;;;;;12.83;7.30;;;;;;;8.74;65.29;101302.97;7391210;19;20132;-57
2022/04/21 05:41:03;;;;;;;10.07;7.03;;;;;;;8.83;64.90;101300.09;7389822;19;20026;-58
2022/04/21 05:43:42;;;;;;;9.88;7.22;;;;;;;8.87;64.81;101294.75;7389372;19;20015;-57
2022/04/21 05:46:16;;;;;;;9.45;7.00;;;;;;;9.03;64.61;101301.25;7390493;19;20030;-58
2022/04/21 05:48:45;;;;;;;12.23;6.72;;;;;;;9.04;64.42;101296.88;7390279;19;20021;-59
2022/04/21 05:51:15;;;;;;;9.10;6.82;;;;;;;9.00;64.34;101302.19;7389222;19;20348;-58
2022/04/21 05:53:51;;;;;;;9.85;6.63;;;;;;;9.11;63.94;101306.25;7390930;19;20022;-57
2022/04/21 05:56:20;;;;;;;11.55;6.82;;;;;;;9.25;64.39;101308.44;7391201;19;20033;-59
2022/04/21 05:58:49;;;;;;;10.07;6.85;;;;;;;9.23;64.29;101302.44;7390543;19;20539;-58
2022/04/21 06:01:18;;;;;;;9.38;6.43;;;;;;;9.30;63.67;101298.72;7391396;19;20018;-58
2022/04/21 06:03:47;;;;;;;13.40;6.93;;;;;;;9.41;63.86;101300.97;7389118;19;20022;-58
2022/04/21 06:06:16;;;;;;;8.13;6.10;;;;;;;9.47;63.43;101299.03;7389996;19;20011;-56
2022/04/21 06:08:45;;;;;;;8.10;6.32;;;;;;;9.48;62.63;101292.03;7390129;19;20014;-53
2022/04/21 06:11:16;;;;;;;11.85;6.43;;;;;;;9.47;62.56;101304.25;7389482;19;20021;-55
2022/04/21 06:13:46;;;;;;;8.85;6.10;;;;;;;9.46;62.41;101307.78;7388531;19;20025;-59
2022/04/21 06:16:14;;;;;;;8.10;6.20;;;;;;;9.52;62.31;101307.56;7389675;19;20029;-55
2022/04/21 06:18:44;;;;;;;24.52;7.38;;;;;;;9.70;62.71;101311.38;7391014;19;20026;-55
2022/04/21 06:21:12;;;;;;;12.60;6.70;;;;;;;9.76;62.45;101315.53;7389484;19;20858;-57
2022/04/21 06:23:41;;;;;;;7.32;5.82;;;;;;;9.86;61.71;101313.47;7389033;19;20022;-58
2022/04/21 06:26:10;;;;;;;10.07;6.32;;;;;;;9.80;61.59;101311.03;7390062;19;20018;-59
2022/04/21 06:28:42;;;;;;;10.75;6.43;;;;;;;9.81;61.66;101303.13;7389161;19;20019;-54
2022/04/21 06:31:11;;;;;;;9.40;6.22;;;;;;;9.79;61.38;101307.59;7388836;19;20021;-55
2022/04/21 06:33:40;;;;;;;8.52;6.40;;;;;;;9.75;61.56;101303.34;7387880;19;20086;-56
2022/04/21 06:36:08;;;;;;;13.13;7.45;;;;;;;9.72;61.99;101311.31;7389085;19;20446;-58
2022/04/21 06:38:37;;;;;;;10.40;5.88;;;;;;;9.92;61.50;101304.56;7389243;19;20272;-57
2022/04/21 06:41:06;;;;;;;10.35;6.78;;;;;;;9.93;61.68;101307.13;7388264;19;20364;-58
2022/04/21 06:49:01;;;;;;;12.38;6.88;;;;;;;10.22;61.56;101286.94;7397085;19;20086;-58
2022/04/21 06:51:30;;;;;;;12.55;7.15;;;;;;;10.39;60.66;101294.22;7396506;19;20022;-58
2022/04/21 06:53:59;;;;;;;13.25;7.28;;;;;;;10.52;60.66;101295.50;7394412;19;20018;-56
2022/04/21 06:56:28;;;;;;;11.23;7.20;;;;;;;10.42;60.25;101298.50;7393800;19;20021;-54
2022/04/21 06:58:57;;;;;;;11.02;7.15;;;;;;;10.59;60.00;101295.25;7396258;19;20026;-55
2022/04/21 07:01:29;;;;;;;10.55;7.15;;;;;;;10.63;59.68;101302.97;7398714;19;20011;-58
2022/04/21 07:03:58;;;;;;;9.25;6.30;;;;;;;10.84;58.26;101295.22;7397616;19;20023;-56
2022/04/21 07:06:27;;;;;;;9.07;6.05;;;;;;;10.96;57.66;101300.00;7399477;19;20015;-59
2022/04/21 07:08:55;;;;;;;9.50;6.40;;;;;;;10.89;56.90;101304.63;7401253;19;20165;-58
2022/04/21 07:11:24;;;;;;;7.70;5.30;;;;;;;10.91;54.90;101305.41;7400916;19;20018;-52
2022/04/21 07:13:55;;;;;;;7.35;4.78;;;;;;;10.95;53.07;101311.38;7404544;19;20025;-54
2022/04/21 07:16:24;;;;;;;12.00;6.22;;;;;;;10.90;53.88;101306.31;7412641;19;20015;-53
2022/04/21 07:18:55;;;;;;;7.53;5.07;;;;;;;11.05;54.43;101315.38;7423134;19;20074;-56
2022/04/21 07:21:24;;;;;;;7.15;5.20;;;;;;;11.04;52.53;101310.19;7398206;19;20487;-57
2022/04/21 07:23:53;;;;;;;7.65;5.30;;;;;;;11.14;52.43;101313.31;7395359;19;20007;-56
2022/04/21 07:26:22;;;;;;;5.85;4.50;;;;;;;11.24;51.59;101315.50;7395970;19;20017;-59
2022/04/21 07:28:51;;;;;;;21.85;5.45;;;;;;;11.19;51.39;101311.34;7395851;19;20026;-55
2022/04/21 07:31:20;;;;;;;6.40;4.75;;;;;;;11.27;51.44;101313.69;7395333;19;20021;-58
2022/04/21 07:33:49;;;;;;;9.35;4.60;;;;;;;11.51;50.85;101309.25;7393320;19;20022;-59
2022/04/21 07:36:20;;;;;;;9.10;4.63;;;;;;;11.73;50.12;101312.69;7395848;19;20125;-58
2022/04/21 07:38:49;;;;;;;5.85;4.18;;;;;;;11.66;49.23;101313.00;7395561;19;20034;-57
2022/04/21 07:41:18;;;;;;;6.97;3.80;;;;;;;11.72;48.79;101316.25;7395217;19;20021;-54
2022/04/21 07:43:47;;;;;;;7.70;4.50;;;;;;;11.83;49.50;101309.69;7394096;19;20053;-59
2022/04/21 07:46:17;;;;;;;9.40;4.50;;;;;;;12.08;50.21;101302.50;7398312;19;20011;-58
2022/04/21 07:51:29;;;;;;;6.78;3.95;;;;;;;12.41;48.05;101303.75;7395189;19;20021;-56
2022/04/21 07:53:56;;;;;;;8.32;4.88;;;;;;;12.40;48.10;101300.25;7392781;19;20470;-57
2022/04/21 07:56:25;;;;;;;6.45;4.25;;;;;;;12.28;47.99;101299.00;7392773;19;20358;-58
2022/04/21 07:58:53;;;;;;;5.72;4.07;;;;;;;12.31;48.97;101307.66;7392415;19;20021;-54
2022/04/21 08:01:22;;;;;;;8.20;4.28;;;;;;;12.43;48.44;101297.47;7398241;19;20134;-55
2022/04/21 08:03:51;;;;;;;5.38;3.85;;;;;;;12.64;46.70;101300.91;7392481;19;20018;-58
2022/04/21 08:06:20;;;;;;;5.25;3.90;;;;;;;12.73;46.22;101299.66;7394742;19;20213;-57
2022/04/21 08:08:52;;;;;;;12.02;4.53;;;;;;;12.76;46.90;101303.91;7394056;19;20018;-58
2022/04/21 08:11:21;;;;;;;5.32;3.75;;;;;;;12.74;47.15;101298.72;7392778;19;20073;-57
2022/04/21 08:13:50;;;;;;;5.72;4.00;;;;;;;12.72;46.96;101307.59;7392100;19;20030;-56
2022/04/21 08:16:19;;;;;;;9.00;4.80;;;;;;;12.64;47.22;101302.72;7393517;19;20010;-57
2022/04/21 08:18:52;;;;;;;7.35;4.00;;;;;;;12.69;46.76;101308.59;7391521;19;20037;-58
2022/04/21 08:21:21;;;;;;;8.02;4.30;;;;;;;12.89;46.85;101307.69;7393086;19;20468;-58
2022/04/21 08:23:52;;;;;;;9.05;4.50;;;;;;;13.03;47.16;101307.06;7392118;19;20029;-57
2022/04/21 08:34:26;;;;;;;11.18;4.20;;;;;;;13.00;44.90;101311.63;7393181;19;20025;-59
2022/04/21 08:36:56;;;;;;;6.88;3.78;;;;;;;12.93;45.44;101309.25;7392411;19;20336;-57
2022/04/21 08:39:27;;;;;;;7.78;4.25;;;;;;;13.20;45.01;101310.69;7392679;19;20018;-59
2022/04/21 08:42:02;;;;;;;15.98;3.80;;;;;;;13.63;43.72;101308.63;7392453;19;20018;-56
2022/04/21 08:44:34;;;;;;;5.35;3.70;;;;;;;13.56;43.91;101312.50;7393019;19;20014;-58
2022/04/21 08:47:08;;;;;;;4.40;3.33;;;;;;;13.76;43.17;101317.63;7392174;19;20468;-59
2022/04/21 08:49:40;;;;;;;7.43;3.60;;;;;;;13.91;43.82;101312.50;7391995;19;20022;-58
2022/04/21 08:52:09;;;;;;;5.23;3.93;;;;;;;13.86;43.06;101317.19;7392531;19;20483;-58
2022/04/21 08:54:42;;;;;;;7.40;4.20;;;;;;;14.00;44.14;101304.16;7392263;19;20104;-58
2022/04/21 08:57:12;;;;;;;6.47;3.90;;;;;;;14.26;43.72;101309.88;7392030;19;20112;-58
2022/04/21 08:59:41;;;;;;;7.13;4.07;;;;;;;14.21;43.18;101303.97;7389133;19;20049;-58
2022/04/21 09:02:10;;;;;;;8.00;3.88;;;;;;;14.05;43.12;101311.81;7396023;19;20011;-59
2022/04/21 09:04:38;;;;;;;8.73;3.60;;;;;;;13.94;42.58;101318.50;7393276;19;20026;-58
2022/04/21 09:07:17;;;;;;;7.72;3.90;;;;;;;13.86;42.87;101304.84;7390763;19;20015;-56
2022/04/21 09:10:06;;;;;;;6.43;3.80;;;;;;;14.18;42.85;101302.34;7390924;19;20015;-56
2022/04/21 09:12:36;;;;;;;7.50;3.47;;;;;;;14.28;41.74;101297.44;7391651;19;20412;-58
2022/04/21 09:15:09;;;;;;;6.70;3.63;;;;;;;14.13;41.98;101299.13;7391910;19;20011;-54
2022/04/21 09:17:42;;;;;;;6.95;3.60;;;;;;;14.37;42.23;101299.63;7391683;19;20018;-57
2022/04/21 09:20:12;;;;;;;6.03;3.20;;;;;;;14.62;41.20;101291.28;7408754;19;20010;-55
2022/04/21 09:22:49;;;;;;;6.75;3.67;;;;;;;14.90;41.06;101289.78;7408615;19;20022;-59
2022/04/21 09:25:20;;;;;;;5.95;3.28;;;;;;;14.62;40.72;101291.28;7391749;19;20010;-62
2022/04/21 09:27:51;;;;;;;5.53;2.97;;;;;;;14.31;41.00;101292.88;7392689;19;20037;-60
2022/04/21 09:30:20;;;;;;;10.85;3.45;;;;;;;14.56;39.98;101291.56;7391356;19;20487;-59
2022/04/21 09:32:54;;;;;;;4.70;3.00;;;;;;;14.79;40.17;101300.91;7390660;19;20075;-60
2022/04/21 09:35:26;;;;;;;6.03;3.17;;;;;;;14.36;40.57;101284.72;7391833;19;20136;-59
2022/04/21 09:37:56;;;;;;;6.07;3.40;;;;;;;14.50;40.86;101284.84;7391259;19;20491;-57
2022/04/21 09:40:30;;;;;;;6.65;3.05;;;;;;;14.63;40.89;101271.00;7391681;19;20023;-58
2022/04/21 09:43:01;;;;;;;6.57;3.25;;;;;;;14.80;40.09;101272.75;7390951;19;20019;-60
2022/04/21 09:48:18;;;;;;;4.05;3.10;;;;;;;14.98;40.04;101284.06;7391313;19;20022;-60
2022/04/21 09:50:51;;;;;;;5.82;3.20;;;;;;;15.14;39.90;101274.34;7390038;19;20111;-59
2022/04/21 09:53:23;;;;;;;5.40;3.42;;;;;;;14.98;40.03;101284.06;7390052;19;20333;-59
2022/04/21 09:56:09;;;;;;;13.85;3.97;;;;;;;14.95;40.47;101285.09;7391586;19;20022;-60
2022/04/21 09:58:39;;;;;;;10.80;3.90;;;;;;;15.36;38.82;101273.16;7389127;19;20026;-59
2022/04/21 10:01:09;;;;;;;9.23;3.28;;;;;;;15.59;38.87;101274.47;7392411;19;20022;-58
2022/04/21 10:03:43;;;;;;;57.05;7.07;;;;;;;15.82;37.98;101265.22;7389514;19;20021;-58
2022/04/21 10:06:13;;;;;;;6.18;3.63;;;;;;;15.80;37.62;101266.25;7391248;19;20014;-59
2022/04/21 10:08:42;;;;;;;6.53;3.20;;;;;;;15.67;37.51;101266.09;7390881;19;20344;-60
2022/04/21 10:11:15;;;;;;;17.58;4.47;;;;;;;15.73;37.99;101258.66;7390099;19;20014;-56
2022/04/21 10:13:43;;;;;;;12.82;4.82;;;;;;;15.69;38.88;101257.13;7390692;19;20011;-57
2022/04/21 10:16:16;;;;;;;22.83;5.05;;;;;;;15.99;37.78;101264.22;7390483;19;20010;-55
2022/04/21 10:18:45;;;;;;;14.98;4.30;;;;;;;16.05;36.85;101263.84;7388471;19;20022;-58
2022/04/21 10:21:19;;;;;;;17.75;4.40;;;;;;;15.95;36.61;101251.25;7390853;19;20091;-57
2022/04/21 10:23:48;;;;;;;186.15;15.95;;;;;;;15.34;37.44;101248.63;7390476;19;20022;-56
2022/04/21 10:26:36;;;;;;;6.38;3.75;;;;;;;15.40;37.72;101241.19;7390509;19;20079;-53
2022/04/21 10:29:17;;;;;;;5.07;3.72;;;;;;;15.71;37.86;101249.13;7390331;19;20015;-60
2022/04/21 10:31:54;;;;;;;52.95;6.20;;;;;;;15.97;36.72;101238.81;7390586;19;20019;-55
2022/04/21 10:34:36;;;;;;;13.68;4.28;;;;;;;15.79;37.11;101230.19;7389107;19;20029;-57
2022/04/21 10:37:12;;;;;;;4.60;3.00;;;;;;;15.75;37.34;101232.16;7390473;19;20093;-57
2022/04/21 10:39:42;;;;;;;11.38;3.55;;;;;;;16.02;36.29;101236.75;7387596;19;20014;-59
2022/04/21 10:42:21;;;;;;;15.38;4.00;;;;;;;15.88;36.79;101234.94;7389946;19;20011;-56
2022/04/21 10:44:52;;;;;;;7.72;3.53;;;;;;;15.83;36.92;101216.72;7389804;19;20409;-58
2022/04/21 10:47:36;;;;;;;7.03;3.20;;;;;;;16.50;36.93;101210.84;7389742;19;20014;-58
2022/04/21 10:50:15;;;;;;;28.08;5.50;;;;;;;16.69;36.07;101214.97;7388876;19;20019;-57
2022/04/21 10:58:52;;;;;;;9.25;3.33;;;;;;;16.43;36.19;101212.19;7388746;19;20423;-59
2022/04/21 11:01:27;;;;;;;;;;;;;;;16.32;35.93;101210.22;7393232;19;20082;-55
2022/04/21 11:04:14;;;;;;;4.00;2.80;;;;;;;16.68;35.53;101200.06;7387840;19;20035;-59
2022/04/21 11:06:45;;;;;;;15.48;3.78;;;;;;;16.88;35.61;101197.00;7387953;19;20372;-57
2022/04/21 11:09:38;;;;;;;7.53;2.78;;;;;;;17.38;34.76;101196.41;7389188;19;20023;-60
2022/04/21 11:12:09;;;;;;;6.32;2.95;;;;;;;17.70;34.55;101183.63;7388243;19;20011;-58
2022/04/21 11:14:40;;;;;;;8.98;3.00;;;;;;;17.67;32.84;101191.78;7389383;19;20022;-58
2022/04/21 11:17:12;;;;;;;7.35;3.50;;;;;;;17.34;33.77;101193.13;7389641;19;20015;-57
2022/04/21 11:19:44;;;;;;;16.87;4.63;;;;;;;16.30;35.65;101187.47;7386881;19;20011;-59
2022/04/21 11:22:16;;;;;;;11.13;4.13;;;;;;;16.38;34.99;101198.41;7397823;19;20007;-59
2022/04/21 11:25:17;;;;;;;11.13;3.80;;;;;;;15.98;36.00;101193.78;7411962;19;20025;-59
2022/04/21 11:27:46;;;;;;;18.00;3.92;;;;;;;16.60;36.22;101185.50;7389997;19;20758;-58
2022/04/21 11:30:16;;;;;;;7.05;3.58;;;;;;;16.90;35.79;101199.53;7387863;19;20014;-59
2022/04/21 11:32:55;;;;;;;4.32;3.28;;;;;;;17.10;35.10;101190.31;7395416;19;20115;-60
2022/04/21 11:35:25;;;;;;;5.57;3.60;;;;;;;17.42;34.82;101188.16;7395568;19;20082;-56
2022/04/21 11:37:59;;;;;;;5.10;3.60;;;;;;;17.05;34.17;101180.03;7395600;19;20015;-59
2022/04/21 11:40:34;;;;;;;6.63;3.58;;;;;;;16.83;34.35;101174.41;7396295;19;20356;-55
2022/04/21 11:43:06;;;;;;;6.07;3.45;;;;;;;16.59;34.54;101181.19;7394640;19;20060;-57
2022/04/21 11:45:40;;;;;;;4.28;3.30;;;;;;;16.93;35.26;101173.72;7398120;19;20025;-54
2022/04/21 11:48:16;;;;;;;7.20;3.55;;;;;;;17.12;34.50;101168.06;7398481;19;20011;-55
2022/04/21 11:50:47;;;;;;;10.63;3.80;;;;;;;17.37;34.61;101165.59;7395712;19;20018;-58
2022/04/21 11:53:18;;;;;;;6.38;3.72;;;;;;;17.69;34.18;101165.19;7394393;19;20027;-58
2022/04/21 11:55:48;;;;;;;8.23;3.58;;;;;;;17.58;33.88;101168.56;7395706;19;20481;-56
2022/04/21 11:58:28;;;;;;;11.15;3.67;;;;;;;17.18;34.59;101172.13;7394928;19;20010;-56
2022/04/21 12:06:37;;;;;;;11.88;3.67;;;;;;;16.77;35.06;101165.88;7395278;19;20011;-59
2022/04/21 12:09:07;;;;;;;5.13;3.70;;;;;;;17.17;35.83;101151.88;7395488;19;20019;-60
2022/04/21 12:11:36;;;;;;;6.00;3.42;;;;;;;17.82;34.84;101142.16;7396870;19;20018;-58
2022/04/21 12:14:05;;;;;;;4.90;3.40;;;;;;;17.95;34.11;101143.03;7394449;19;20014;-55
2022/04/21 12:16:46;;;;;;;8.00;3.70;;;;;;;18.63;33.88;101143.50;7398408;19;20019;-57
2022/04/21 12:19:21;;;;;;;12.73;4.38;;;;;;;18.14;33.91;101133.78;7399269;19;20022;-55
2022/04/21 12:21:59;;;;;;;10.57;3.88;;;;;;;17.97;33.93;101125.22;7398650;19;20019;-55
2022/04/21 12:24:33;;;;;;;11.38;3.88;;;;;;;17.77;34.42;101139.00;7399620;19;20007;-56
2022/04/21 12:27:03;;;;;;;8.05;3.65;;;;;;;18.38;33.94;101136.47;7396846;19;20015;-55
2022/04/21 12:29:32;;;;;;;8.45;3.83;;;;;;;18.40;34.24;101141.69;7394893;19;20399;-58
2022/04/21 12:32:05;;;;;;;23.23;4.72;;;;;;;18.82;33.52;101152.75;7395988;19;20014;-58
2022/04/21 12:34:42;;;;;;;8.32;4.13;;;;;;;18.26;33.70;101148.81;7396421;19;20551;-59
2022/04/21 12:37:11;;;;;;;7.47;4.00;;;;;;;18.48;33.79;101140.16;7394195;19;20018;-59